Time;durP1;ratioP1;P1;durP2;ratioP2;P2;SDS_P1;SDS_P2;PMS_P1;PMS_P2;Temp;Humidity;BMP_temperature;BMP_pressure;BME280_temperature;BME280_humidity;BME280_pressure;Samples;Min_cycle;Max_cycle;Signal;HPM_P1;HPM_P2
2021/09/03 00:01:28;;;;;;;;;;;;;;;;;;5012055;28;20143;-67
2021/09/03 00:03:55;;;;;;;;;;;;;;;;;;5011942;28;20006;-67
2021/09/03 00:06:21;;;;;;;;;;;;;;;;;;5011696;28;20009;-67
2021/09/03 00:08:48;;;;;;;;;;;;;;;;;;5011723;28;20018;-67
2021/09/03 00:11:15;;;;;;;;;;;;;;;;;;5011266;28;20022;-67
2021/09/03 00:13:42;;;;;;;;;;;;;;;;;;5012266;28;20093;-67
2021/09/03 00:16:09;;;;;;;;;;;;;;;;;;5015318;28;20385;-67
2021/09/03 00:18:36;;;;;;;;;;;;;;;;;;5015185;28;20026;-67
2021/09/03 00:21:03;;;;;;;;;;;;;;;;;;5014870;28;20026;-68
2021/09/03 00:23:30;;;;;;;;;;;;;;;;;;5015029;28;20009;-67
2021/09/03 00:25:57;;;;;;;;;;;;;;;;;;5015141;28;20011;-67
2021/09/03 00:28:24;;;;;;;;;;;;;;;;;;5015333;28;20018;-67
2021/09/03 00:30:51;;;;;;;;;;;;;;;;;;5014809;28;20040;-67
2021/09/03 00:33:17;;;;;;;;;;;;;;;;;;5015013;28;20009;-68
2021/09/03 00:35:44;;;;;;;;;;;;;;;;;;5014830;28;20002;-67
2021/09/03 00:38:11;;;;;;;;;;;;;;;;;;5014553;28;20022;-67
2021/09/03 00:40:38;;;;;;;;;;;;;;;;;;5014706;28;20013;-64
2021/09/03 00:43:05;;;;;;;;;;;;;;;;;;5015107;28;20006;-68
2021/09/03 00:45:32;;;;;;;;;;;;;;;;;;5015063;28;20381;-66
2021/09/03 00:47:59;;;;;;;;;;;;;;;;;;5014445;28;20006;-65
2021/09/03 00:50:26;;;;;;;;;;;;;;;;;;5014816;28;20026;-68
2021/09/03 00:52:53;;;;;;;;;;;;;;;;;;5014373;28;20493;-65
2021/09/03 00:55:20;;;;;;;;;;;;;;;;;;5014777;28;20010;-67
2021/09/03 00:57:47;;;;;;;;;;;;;;;;;;5014657;28;20002;-67
2021/09/03 01:00:14;;;;;;;;;;;;;;;;;;5014424;28;20392;-66
2021/09/03 01:02:41;;;;;;;;;;;;;;;;;;5014154;28;20431;-67
2021/09/03 01:05:07;;;;;;;;;;;;;;;;;;5014708;28;20009;-67
2021/09/03 01:07:34;;;;;;;;;;;;;;;;;;5013964;28;20472;-67
2021/09/03 01:10:01;;;;;;;;;;;;;;;;;;5014416;28;20022;-67
2021/09/03 01:12:28;;;;;;;;;;;;;;;;;;5014007;28;20014;-67
2021/09/03 01:14:55;;;;;;;;;;;;;;;;;;5014027;28;20002;-67
2021/09/03 01:17:22;;;;;;;;;;;;;;;;;;5014267;28;20089;-68
2021/09/03 01:19:49;;;;;;;;;;;;;;;;;;5014180;28;20041;-67
2021/09/03 01:22:16;;;;;;;;;;;;;;;;;;5013375;28;20006;-67
2021/09/03 01:24:43;;;;;;;;;;;;;;;;;;5013945;28;20009;-67
2021/09/03 01:27:10;;;;;;;;;;;;;;;;;;5012968;28;20446;-67
2021/09/03 01:29:36;;;;;;;;;;;;;;;;;;5014171;28;20025;-68
2021/09/03 01:32:03;;;;;;;;;;;;;;;;;;5013316;28;20014;-67
2021/09/03 01:34:30;;;;;;;;;;;;;;;;;;5013686;28;20470;-67
2021/09/03 01:36:57;;;;;;;;;;;;;;;;;;5013877;28;20006;-67
2021/09/03 01:39:24;;;;;;;;;;;;;;;;;;5013664;28;20022;-67
2021/09/03 01:41:51;;;;;;;;;;;;;;;;;;5013454;28;20006;-67
2021/09/03 01:44:18;;;;;;;;;;;;;;;;;;5013509;28;20009;-67
2021/09/03 01:46:45;;;;;;;;;;;;;;;;;;5013811;28;20009;-67
2021/09/03 01:49:12;;;;;;;;;;;;;;;;;;5013407;28;20022;-67
2021/09/03 01:51:39;;;;;;;;;;;;;;;;;;5013446;28;20018;-68
2021/09/03 01:54:06;;;;;;;;;;;;;;;;;;5013272;28;20009;-68
2021/09/03 01:56:32;;;;;;;;;;;;;;;;;;5013488;28;20003;-68
2021/09/03 01:58:59;;;;;;;;;;;;;;;;;;5013476;28;20037;-68
2021/09/03 02:01:26;;;;;;;;;;;;;;;;;;5013097;28;20473;-68
2021/09/03 02:03:53;;;;;;;;;;;;;;;;;;5013068;28;20009;-67
2021/09/03 02:06:20;;;;;;;;;;;;;;;;;;5013583;28;20002;-68
2021/09/03 02:08:47;;;;;;;;;;;;;;;;;;5013406;28;20025;-67
2021/09/03 02:11:14;;;;;;;;;;;;;;;;;;5013082;28;20014;-68
2021/09/03 02:13:41;;;;;;;;;;;;;;;;;;5013205;28;20454;-68
2021/09/03 02:16:08;;;;;;;;;;;;;;;;;;5013001;28;20002;-68
2021/09/03 02:18:35;;;;;;;;;;;;;;;;;;5012721;28;20025;-68
2021/09/03 02:21:02;;;;;;;;;;;;;;;;;;5013044;28;20002;-68
2021/09/03 02:23:28;;;;;;;;;;;;;;;;;;5013134;28;20002;-68
2021/09/03 02:25:55;;;;;;;;;;;;;;;;;;5012847;28;20385;-67
2021/09/03 02:28:22;;;;;;;;;;;;;;;;;;5013024;28;20025;-68
2021/09/03 02:30:49;;;;;;;;;;;;;;;;;;5012316;28;20002;-68
2021/09/03 02:33:16;;;;;;;;;;;;;;;;;;5012540;28;20025;-67
2021/09/03 02:35:43;;;;;;;;;;;;;;;;;;5013065;28;20002;-68
2021/09/03 02:38:10;;;;;;;;;;;;;;;;;;5012498;28;20003;-68
2021/09/03 02:40:37;;;;;;;;;;;;;;;;;;5012345;28;20481;-67
2021/09/03 02:43:04;;;;;;;;;;;;;;;;;;5012430;28;20008;-67
2021/09/03 02:45:31;;;;;;;;;;;;;;;;;;5012663;28;20012;-67
2021/09/03 02:47:58;;;;;;;;;;;;;;;;;;5012524;28;20025;-67
2021/09/03 02:50:25;;;;;;;;;;;;;;;;;;5012556;28;20002;-66
2021/09/03 02:52:52;;;;;;;;;;;;;;;;;;5012283;28;20025;-67
2021/09/03 02:55:19;;;;;;;;;;;;;;;;;;5012799;28;20002;-67
2021/09/03 02:57:46;;;;;;;;;;;;;;;;;;5012672;28;20002;-67
2021/09/03 03:00:13;;;;;;;;;;;;;;;;;;5012352;28;20520;-67
2021/09/03 03:02:40;;;;;;;;;;;;;;;;;;5012693;28;20009;-66
2021/09/03 03:05:07;;;;;;;;;;;;;;;;;;5012672;28;20006;-67
2021/09/03 03:07:34;;;;;;;;;;;;;;;;;;5012197;28;20002;-67
2021/09/03 03:10:01;;;;;;;;;;;;;;;;;;5012340;28;20022;-68
2021/09/03 03:12:28;;;;;;;;;;;;;;;;;;5011756;28;20014;-67
2021/09/03 03:14:54;;;;;;;;;;;;;;;;;;5012197;28;20002;-67
2021/09/03 03:17:21;;;;;;;;;;;;;;;;;;5012189;28;20010;-67
2021/09/03 03:19:48;;;;;;;;;;;;;;;;;;5012627;28;20018;-68
2021/09/03 03:22:15;;;;;;;;;;;;;;;;;;5012062;28;20009;-67
2021/09/03 03:24:42;;;;;;;;;;;;;;;;;;5012121;28;20002;-66
2021/09/03 03:27:09;;;;;;;;;;;;;;;;;;5012643;28;20024;-67
2021/09/03 03:29:36;;;;;;;;;;;;;;;;;;5012041;28;20485;-67
2021/09/03 03:32:03;;;;;;;;;;;;;;;;;;5012000;28;20015;-67
2021/09/03 03:34:30;;;;;;;;;;;;;;;;;;5012044;28;20002;-67
2021/09/03 03:36:57;;;;;;;;;;;;;;;;;;5012153;28;20510;-66
2021/09/03 03:39:24;;;;;;;;;;;;;;;;;;5011887;28;20022;-67
2021/09/03 03:41:52;;;;;;;;;;;;;;;;;;5011794;28;20002;-66
2021/09/03 03:44:19;;;;;;;;;;;;;;;;;;5012059;28;20009;-66
2021/09/03 03:46:46;;;;;;;;;;;;;;;;;;5011998;28;20002;-67
2021/09/03 03:49:13;;;;;;;;;;;;;;;;;;5012805;28;20516;-67
2021/09/03 03:51:39;;;;;;;;;;;;;;;;;;5015483;28;20003;-67
2021/09/03 03:54:06;;;;;;;;;;;;;;;;;;5015571;28;20025;-66
2021/09/03 03:56:33;;;;;;;;;;;;;;;;;;5015649;28;20377;-67
2021/09/03 03:59:00;;;;;;;;;;;;;;;;;;5015638;28;20018;-67
2021/09/03 04:01:27;;;;;;;;;;;;;;;;;;5015456;28;20081;-66
2021/09/03 04:03:54;;;;;;;;;;;;;;;;;;5015508;28;20385;-67
2021/09/03 04:06:21;;;;;;;;;;;;;;;;;;5015216;28;20006;-66
2021/09/03 04:08:48;;;;;;;;;;;;;;;;;;5015449;28;20022;-67
2021/09/03 04:11:15;;;;;;;;;;;;;;;;;;5015465;28;20442;-67
2021/09/03 04:13:42;;;;;;;;;;;;;;;;;;5015492;28;20024;-68
2021/09/03 04:16:09;;;;;;;;;;;;;;;;;;5015560;28;20002;-67
2021/09/03 04:18:38;;;;;;;;;;;;;;;;;;5015014;28;20512;-67
2021/09/03 04:21:05;;;;;;;;;;;;;;;;;;5015392;28;20113;-67
2021/09/03 04:23:32;;;;;;;;;;;;;;;;;;5015352;28;20002;-68
2021/09/03 04:25:59;;;;;;;;;;;;;;;;;;5015072;28;20002;-68
2021/09/03 04:28:27;;;;;;;;;;;;;;;;;;5014826;28;20113;-69
2021/09/03 04:30:54;;;;;;;;;;;;;;;;;;5015167;28;20009;-67
2021/09/03 04:33:21;;;;;;;;;;;;;;;;;;5015070;28;20392;-69
2021/09/03 04:35:48;;;;;;;;;;;;;;;;;;5015120;28;20006;-69
2021/09/03 04:38:15;;;;;;;;;;;;;;;;;;5014665;28;20036;-69
2021/09/03 04:40:42;;;;;;;;;;;;;;;;;;5014997;28;19998;-69
2021/09/03 04:43:08;;;;;;;;;;;;;;;;;;5014839;28;20009;-68
2021/09/03 04:45:35;;;;;;;;;;;;;;;;;;5014808;28;20002;-68
2021/09/03 04:48:02;;;;;;;;;;;;;;;;;;5014908;28;20369;-68
2021/09/03 04:50:30;;;;;;;;;;;;;;;;;;5014454;28;20002;-69
2021/09/03 04:52:57;;;;;;;;;;;;;;;;;;5015038;28;20018;-68
2021/09/03 04:55:24;;;;;;;;;;;;;;;;;;5014613;28;20002;-69
2021/09/03 04:57:50;;;;;;;;;;;;;;;;;;5014364;28;20009;-67
2021/09/03 05:00:17;;;;;;;;;;;;;;;;;;5014485;28;20006;-69
2021/09/03 05:02:44;;;;;;;;;;;;;;;;;;5014216;28;20008;-69
2021/09/03 05:05:11;;;;;;;;;;;;;;;;;;5014354;28;20489;-68
2021/09/03 05:07:38;;;;;;;;;;;;;;;;;;5014523;28;20013;-69
2021/09/03 05:10:05;;;;;;;;;;;;;;;;;;5014683;28;20024;-68
2021/09/03 05:12:32;;;;;;;;;;;;;;;;;;5014280;28;20133;-69
2021/09/03 05:14:59;;;;;;;;;;;;;;;;;;5014094;28;20002;-67
2021/09/03 05:17:26;;;;;;;;;;;;;;;;;;5013991;28;20010;-69
2021/09/03 05:19:53;;;;;;;;;;;;;;;;;;5014462;28;20401;-69
2021/09/03 05:22:20;;;;;;;;;;;;;;;;;;5013968;28;20528;-68
2021/09/03 05:24:47;;;;;;;;;;;;;;;;;;5014085;28;20008;-69
2021/09/03 05:27:13;;;;;;;;;;;;;;;;;;5013940;28;19998;-68
2021/09/03 05:29:40;;;;;;;;;;;;;;;;;;5014163;28;20403;-68
2021/09/03 05:32:07;;;;;;;;;;;;;;;;;;5013335;28;20027;-67
2021/09/03 05:34:34;;;;;;;;;;;;;;;;;;5014232;28;20002;-68
2021/09/03 05:37:01;;;;;;;;;;;;;;;;;;5014041;28;20100;-66
2021/09/03 05:39:28;;;;;;;;;;;;;;;;;;5033262;23;20014;-72
2021/09/03 05:41:55;;;;;;;;;;;;;;;;;;4988798;28;20006;-72
2021/09/03 05:44:22;;;;;;;;;;;;;;;;;;5005227;28;19994;-72
2021/09/03 05:46:49;;;;;;;;;;;;;;;;;;5013187;28;20002;-72
2021/09/03 05:49:16;;;;;;;;;;;;;;;;;;5013644;28;20009;-71
2021/09/03 05:51:43;;;;;;;;;;;;;;;;;;5013290;28;20002;-72
2021/09/03 05:54:09;;;;;;;;;;;;;;;;;;5013260;28;20511;-72
2021/09/03 05:56:36;;;;;;;;;;;;;;;;;;5013745;28;20006;-72
2021/09/03 05:59:03;;;;;;;;;;;;;;;;;;5013533;28;20025;-73
2021/09/03 06:01:30;;;;;;;;;;;;;;;;;;5012967;28;20002;-72
2021/09/03 06:03:57;;;;;;;;;;;;;;;;;;5013206;28;20457;-72
2021/09/03 06:06:24;;;;;;;;;;;;;;;;;;5013448;28;20002;-71
2021/09/03 06:08:52;;;;;;;;;;;;;;;;;;5013199;28;20002;-72
2021/09/03 06:11:21;;;;;;;;;;;;;;;;;;5012585;28;20018;-72
2021/09/03 06:13:47;;;;;;;;;;;;;;;;;;5012405;28;20037;-72
2021/09/03 06:16:14;;;;;;;;;;;;;;;;;;5013638;28;20002;-72
2021/09/03 06:18:41;;;;;;;;;;;;;;;;;;5013213;28;20010;-72
2021/09/03 06:21:08;;;;;;;;;;;;;;;;;;5012678;28;20512;-71
2021/09/03 06:23:35;;;;;;;;;;;;;;;;;;5013136;28;20009;-72
2021/09/03 06:26:02;;;;;;;;;;;;;;;;;;5012868;28;20002;-73
2021/09/03 06:28:29;;;;;;;;;;;;;;;;;;5012658;28;20088;-72
2021/09/03 06:30:56;;;;;;;;;;;;;;;;;;5012808;28;20026;-72
2021/09/03 06:33:23;;;;;;;;;;;;;;;;;;5012839;28;20018;-72
2021/09/03 06:35:50;;;;;;;;;;;;;;;;;;5012609;28;20389;-72
2021/09/03 06:38:17;;;;;;;;;;;;;;;;;;5012715;28;20012;-71
2021/09/03 06:40:44;;;;;;;;;;;;;;;;;;5012316;28;20022;-72
2021/09/03 06:43:10;;;;;;;;;;;;;;;;;;5012737;28;20006;-70
2021/09/03 06:45:37;;;;;;;;;;;;;;;;;;5012869;28;20453;-70
2021/09/03 06:48:04;;;;;;;;;;;;;;;;;;5012630;28;20010;-71
2021/09/03 06:50:31;;;;;;;;;;;;;;;;;;5012552;28;20018;-71
2021/09/03 06:52:58;;;;;;;;;;;;;;;;;;5012444;28;20022;-71
2021/09/03 06:55:25;;;;;;;;;;;;;;;;;;5012547;28;20009;-71
2021/09/03 06:57:52;;;;;;;;;;;;;;;;;;5012613;28;20006;-71
2021/09/03 07:00:19;;;;;;;;;;;;;;;;;;5012133;28;20026;-69
2021/09/03 07:02:46;;;;;;;;;;;;;;;;;;5012650;28;20002;-71
2021/09/03 07:05:13;;;;;;;;;;;;;;;;;;5012362;28;20480;-70
2021/09/03 07:07:40;;;;;;;;;;;;;;;;;;5012554;28;20049;-71
2021/09/03 07:10:06;;;;;;;;;;;;;;;;;;5012070;28;20519;-71
2021/09/03 07:12:33;;;;;;;;;;;;;;;;;;5011803;28;20097;-70
2021/09/03 07:15:00;;;;;;;;;;;;;;;;;;5012427;28;20002;-70
2021/09/03 07:17:27;;;;;;;;;;;;;;;;;;5012409;28;20006;-69
2021/09/03 07:19:54;;;;;;;;;;;;;;;;;;5012001;28;20400;-71
2021/09/03 07:22:21;;;;;;;;;;;;;;;;;;5011904;28;20009;-71
2021/09/03 07:24:48;;;;;;;;;;;;;;;;;;5015813;28;20002;-71
2021/09/03 07:27:15;;;;;;;;;;;;;;;;;;5016097;28;20450;-70
2021/09/03 07:29:42;;;;;;;;;;;;;;;;;;5016305;28;20025;-70
2021/09/03 07:32:09;;;;;;;;;;;;;;;;;;5015904;28;20003;-71
2021/09/03 07:34:36;;;;;;;;;;;;;;;;;;5016998;28;20018;-70
2021/09/03 07:37:03;;;;;;;;;;;;;;;;;;5016269;28;20009;-70
2021/09/03 07:39:29;;;;;;;;;;;;;;;;;;5015743;28;20045;-70
2021/09/03 07:41:57;;;;;;;;;;;;;;;;;;5015619;28;20368;-71
2021/09/03 07:44:24;;;;;;;;;;;;;;;;;;5015936;28;20480;-70
2021/09/03 07:46:51;;;;;;;;;;;;;;;;;;5016259;28;20002;-70
2021/09/03 07:49:18;;;;;;;;;;;;;;;;;;5015879;28;20100;-70
2021/09/03 07:51:45;;;;;;;;;;;;;;;;;;5015269;28;20369;-70
2021/09/03 07:54:11;;;;;;;;;;;;;;;;;;5016002;28;20025;-70
2021/09/03 07:56:38;;;;;;;;;;;;;;;;;;5015909;28;20002;-71
2021/09/03 07:59:05;;;;;;;;;;;;;;;;;;5015460;28;20009;-70
2021/09/03 08:01:32;;;;;;;;;;;;;;;;;;5015821;28;20009;-71
2021/09/03 08:03:59;;;;;;;;;;;;;;;;;;5016067;28;20002;-70
2021/09/03 08:06:26;;;;;;;;;;;;;;;;;;5015340;28;20009;-71
2021/09/03 08:08:53;;;;;;;;;;;;;;;;;;5015694;28;20013;-70
2021/09/03 08:11:20;;;;;;;;;;;;;;;;;;5015412;28;20024;-70
2021/09/03 08:13:47;;;;;;;;;;;;;;;;;;5015313;28;20469;-71
2021/09/03 08:16:14;;;;;;;;;;;;;;;;;;5015554;28;20002;-69
2021/09/03 08:18:41;;;;;;;;;;;;;;;;;;5015457;28;20010;-71
2021/09/03 08:21:07;;;;;;;;;;;;;;;;;;5014888;28;20018;-69
2021/09/03 08:23:35;;;;;;;;;;;;;;;;;;5015622;28;20009;-69
2021/09/03 08:26:02;;;;;;;;;;;;;;;;;;5015412;28;20002;-69
2021/09/03 08:28:29;;;;;;;;;;;;;;;;;;5015278;28;20009;-70
2021/09/03 08:30:56;;;;;;;;;;;;;;;;;;5015144;28;20025;-69
2021/09/03 08:33:23;;;;;;;;;;;;;;;;;;5014949;28;20014;-69
2021/09/03 08:35:50;;;;;;;;;;;;;;;;;;5014689;28;20002;-69
2021/09/03 08:38:16;;;;;;;;;;;;;;;;;;5015284;28;20002;-69
2021/09/03 08:40:43;;;;;;;;;;;;;;;;;;5014634;28;20045;-70
2021/09/03 08:43:10;;;;;;;;;;;;;;;;;;5014585;28;20017;-69
2021/09/03 08:45:37;;;;;;;;;;;;;;;;;;5015266;28;20021;-70
2021/09/03 08:48:04;;;;;;;;;;;;;;;;;;5014952;28;20002;-69
2021/09/03 08:50:31;;;;;;;;;;;;;;;;;;5014372;28;20367;-69
2021/09/03 08:52:58;;;;;;;;;;;;;;;;;;5014399;28;20188;-69
2021/09/03 08:55:25;;;;;;;;;;;;;;;;;;5014949;28;20009;-69
2021/09/03 08:57:52;;;;;;;;;;;;;;;;;;5014793;28;20002;-70
2021/09/03 09:00:19;;;;;;;;;;;;;;;;;;5014428;28;20505;-70
2021/09/03 09:02:46;;;;;;;;;;;;;;;;;;5014008;28;20013;-70
2021/09/03 09:05:13;;;;;;;;;;;;;;;;;;5014704;28;20006;-69
2021/09/03 09:07:39;;;;;;;;;;;;;;;;;;5014689;28;20217;-69
2021/09/03 09:10:07;;;;;;;;;;;;;;;;;;5014520;28;20024;-69
2021/09/03 09:12:34;;;;;;;;;;;;;;;;;;5014186;28;20002;-70
2021/09/03 09:15:02;;;;;;;;;;;;;;;;;;5014142;28;20022;-69
2021/09/03 09:17:29;;;;;;;;;;;;;;;;;;5014380;28;20046;-70
2021/09/03 09:19:56;;;;;;;;;;;;;;;;;;5014166;28;20018;-70
2021/09/03 09:22:23;;;;;;;;;;;;;;;;;;5014048;28;20002;-70
2021/09/03 09:24:50;;;;;;;;;;;;;;;;;;5014451;28;20002;-69
2021/09/03 09:27:17;;;;;;;;;;;;;;;;;;5014087;28;20002;-70
2021/09/03 09:29:43;;;;;;;;;;;;;;;;;;5014338;28;20044;-69
2021/09/03 09:32:12;;;;;;;;;;;;;;;;;;5013819;28;20009;-69
2021/09/03 09:34:38;;;;;;;;;;;;;;;;;;5013994;28;20072;-70
2021/09/03 09:37:05;;;;;;;;;;;;;;;;;;5013886;28;20392;-70
2021/09/03 09:39:32;;;;;;;;;;;;;;;;;;5013503;28;20022;-71
2021/09/03 09:41:59;;;;;;;;;;;;;;;;;;5013569;28;20009;-70
2021/09/03 09:44:26;;;;;;;;;;;;;;;;;;5013901;28;20006;-70
2021/09/03 09:46:53;;;;;;;;;;;;;;;;;;5013251;28;20005;-69
2021/09/03 09:49:20;;;;;;;;;;;;;;;;;;5013295;28;20002;-69
2021/09/03 09:51:48;;;;;;;;;;;;;;;;;;5013585;28;20009;-70
2021/09/03 09:54:15;;;;;;;;;;;;;;;;;;5013585;28;20019;-70
2021/09/03 09:56:42;;;;;;;;;;;;;;;;;;5013391;28;20006;-70
2021/09/03 09:59:09;;;;;;;;;;;;;;;;;;5013177;28;20017;-70
2021/09/03 10:01:36;;;;;;;;;;;;;;;;;;5013221;28;20461;-71
2021/09/03 10:04:03;;;;;;;;;;;;;;;;;;5013233;28;20002;-71
2021/09/03 10:06:30;;;;;;;;;;;;;;;;;;5013547;28;20009;-70
2021/09/03 10:08:57;;;;;;;;;;;;;;;;;;5013198;28;20350;-70
2021/09/03 10:11:24;;;;;;;;;;;;;;;;;;5012867;28;20025;-70
2021/09/03 10:13:51;;;;;;;;;;;;;;;;;;5013377;28;20014;-70
2021/09/03 10:16:18;;;;;;;;;;;;;;;;;;5013662;28;20056;-69
2021/09/03 10:18:45;;;;;;;;;;;;;;;;;;5012937;28;20002;-70
2021/09/03 10:21:12;;;;;;;;;;;;;;;;;;5012995;28;20025;-70
2021/09/03 10:23:38;;;;;;;;;;;;;;;;;;5014058;28;20002;-70
2021/09/03 10:26:05;;;;;;;;;;;;;;;;;;5013057;28;20005;-70
2021/09/03 10:28:32;;;;;;;;;;;;;;;;;;5012753;28;20002;-70
2021/09/03 10:30:59;;;;;;;;;;;;;;;;;;5012653;28;20029;-70
2021/09/03 10:33:26;;;;;;;;;;;;;;;;;;5012906;28;20009;-70
2021/09/03 10:35:53;;;;;;;;;;;;;;;;;;5012750;28;20006;-71
2021/09/03 10:38:20;;;;;;;;;;;;;;;;;;5012668;28;20009;-70
2021/09/03 10:40:47;;;;;;;;;;;;;;;;;;5012196;28;20022;-70
2021/09/03 10:43:14;;;;;;;;;;;;;;;;;;5012509;28;20002;-70
2021/09/03 10:45:42;;;;;;;;;;;;;;;;;;5012770;28;20003;-70
2021/09/03 10:48:10;;;;;;;;;;;;;;;;;;5012631;28;20006;-70
2021/09/03 10:50:37;;;;;;;;;;;;;;;;;;5012168;28;20381;-70
2021/09/03 10:53:04;;;;;;;;;;;;;;;;;;5012312;28;20002;-70
2021/09/03 10:55:31;;;;;;;;;;;;;;;;;;5012675;28;20021;-69
2021/09/03 10:57:58;;;;;;;;;;;;;;;;;;5012038;28;20003;-70
2021/09/03 11:00:25;;;;;;;;;;;;;;;;;;5012360;28;20019;-70
2021/09/03 11:02:52;;;;;;;;;;;;;;;;;;5012347;28;20002;-71
2021/09/03 11:05:19;;;;;;;;;;;;;;;;;;5012463;28;20013;-70
2021/09/03 11:07:46;;;;;;;;;;;;;;;;;;5012208;28;20007;-70
2021/09/03 11:10:13;;;;;;;;;;;;;;;;;;5012280;28;20017;-70
2021/09/03 11:12:40;;;;;;;;;;;;;;;;;;5012547;28;20013;-70
2021/09/03 11:15:06;;;;;;;;;;;;;;;;;;5012216;28;20018;-70
2021/09/03 11:17:33;;;;;;;;;;;;;;;;;;5012173;28;20440;-69
2021/09/03 11:20:00;;;;;;;;;;;;;;;;;;5012174;28;20018;-71
2021/09/03 11:22:27;;;;;;;;;;;;;;;;;;5012316;28;20002;-69
2021/09/03 11:24:55;;;;;;;;;;;;;;;;;;5012155;28;20457;-70
2021/09/03 11:27:22;;;;;;;;;;;;;;;;;;5011937;28;20412;-70
2021/09/03 11:29:50;;;;;;;;;;;;;;;;;;5012650;28;20087;-69
2021/09/03 11:32:17;;;;;;;;;;;;;;;;;;5011865;28;20002;-70
2021/09/03 11:34:44;;;;;;;;;;;;;;;;;;5011892;28;20481;-70
2021/09/03 11:37:11;;;;;;;;;;;;;;;;;;5011978;28;20409;-68
2021/09/03 11:39:38;;;;;;;;;;;;;;;;;;5036277;23;20022;-64
2021/09/03 11:42:04;;;;;;;;;;;;;;;;;;5006481;28;20006;-63
2021/09/03 11:44:31;;;;;;;;;;;;;;;;;;5020137;28;19994;-63
2021/09/03 11:46:58;;;;;;;;;;;;;;;;;;5029527;28;20021;-63
2021/09/03 11:49:25;;;;;;;;;;;;;;;;;;5031576;28;20516;-63
2021/09/03 11:51:52;;;;;;;;;;;;;;;;;;5031426;28;20025;-63
2021/09/03 11:54:19;;;;;;;;;;;;;;;;;;5031724;28;20022;-62
2021/09/03 11:56:46;;;;;;;;;;;;;;;;;;5031455;28;20362;-64
2021/09/03 11:59:14;;;;;;;;;;;;;;;;;;5031869;28;20005;-63
2021/09/03 12:01:41;;;;;;;;;;;;;;;;;;5031044;28;20060;-63
2021/09/03 12:04:08;;;;;;;;;;;;;;;;;;5031702;28;20080;-63
2021/09/03 12:06:36;;;;;;;;;;;;;;;;;;5031434;28;20470;-63
2021/09/03 12:09:03;;;;;;;;;;;;;;;;;;5032016;28;20001;-63
2021/09/03 12:11:30;;;;;;;;;;;;;;;;;;5034544;28;20025;-63
2021/09/03 12:13:57;;;;;;;;;;;;;;;;;;5034810;28;20080;-63
2021/09/03 12:16:24;;;;;;;;;;;;;;;;;;5035255;28;20006;-62
2021/09/03 12:18:51;;;;;;;;;;;;;;;;;;5035230;28;20002;-63
2021/09/03 12:21:18;;;;;;;;;;;;;;;;;;5034877;28;20041;-62
2021/09/03 12:23:45;;;;;;;;;;;;;;;;;;5034729;28;20002;-63
2021/09/03 12:26:14;;;;;;;;;;;;;;;;;;5034977;28;20464;-63
2021/09/03 12:28:41;;;;;;;;;;;;;;;;;;5035206;28;20095;-63
2021/09/03 12:31:08;;;;;;;;;;;;;;;;;;5034562;28;20022;-63
2021/09/03 12:33:35;;;;;;;;;;;;;;;;;;5035016;28;20005;-63
2021/09/03 12:36:02;;;;;;;;;;;;;;;;;;5034772;28;20025;-62
2021/09/03 12:38:29;;;;;;;;;;;;;;;;;;5035174;28;20002;-63
2021/09/03 12:40:56;;;;;;;;;;;;;;;;;;5035079;28;20091;-62
2021/09/03 12:43:23;;;;;;;;;;;;;;;;;;5036048;28;20002;-62
2021/09/03 12:45:50;;;;;;;;;;;;;;;;;;5041422;28;20012;-63
2021/09/03 12:48:17;;;;;;;;;;;;;;;;;;5046587;28;20357;-63
2021/09/03 12:50:44;;;;;;;;;;;;;;;;;;5044341;28;20032;-63
2021/09/03 12:53:11;;;;;;;;;;;;;;;;;;5034837;28;20002;-62
2021/09/03 12:55:38;;;;;;;;;;;;;;;;;;5034934;28;20021;-63
2021/09/03 12:58:04;;;;;;;;;;;;;;;;;;5034687;28;20012;-62
2021/09/03 13:00:31;;;;;;;;;;;;;;;;;;5034325;28;20018;-63
2021/09/03 13:02:58;;;;;;;;;;;;;;;;;;5034529;28;20012;-63
2021/09/03 13:05:25;;;;;;;;;;;;;;;;;;5034186;28;20449;-63
2021/09/03 13:07:52;;;;;;;;;;;;;;;;;;5034314;28;20002;-63
2021/09/03 13:10:19;;;;;;;;;;;;;;;;;;5033710;28;20064;-63
2021/09/03 13:12:46;;;;;;;;;;;;;;;;;;5034131;28;20021;-63
2021/09/03 13:15:13;;;;;;;;;;;;;;;;;;5034083;28;20028;-62
2021/09/03 13:17:40;;;;;;;;;;;;;;;;;;5034386;28;20354;-63
2021/09/03 13:20:07;;;;;;;;;;;;;;;;;;5033656;28;20018;-62
2021/09/03 13:22:34;;;;;;;;;;;;;;;;;;5033708;28;20009;-63
2021/09/03 13:25:01;;;;;;;;;;;;;;;;;;5034006;28;20381;-63
2021/09/03 13:27:28;;;;;;;;;;;;;;;;;;5034040;28;20008;-63
2021/09/03 13:29:55;;;;;;;;;;;;;;;;;;5033953;28;20037;-62
2021/09/03 13:32:22;;;;;;;;;;;;;;;;;;5033870;28;20023;-63
2021/09/03 13:34:49;;;;;;;;;;;;;;;;;;5033784;28;20014;-63
2021/09/03 13:37:16;;;;;;;;;;;;;;;;;;5033877;28;20009;-63
2021/09/03 13:39:43;;;;;;;;;;;;;;;;;;5033103;28;20024;-63
2021/09/03 13:42:10;;;;;;;;;;;;;;;;;;5033422;28;20005;-63
2021/09/03 13:44:37;;;;;;;;;;;;;;;;;;5033940;28;20006;-63
2021/09/03 13:47:04;;;;;;;;;;;;;;;;;;5033436;28;20002;-62
2021/09/03 13:49:31;;;;;;;;;;;;;;;;;;5033835;28;20007;-63
2021/09/03 13:51:58;;;;;;;;;;;;;;;;;;5033468;28;20002;-63
2021/09/03 13:54:24;;;;;;;;;;;;;;;;;;5033242;28;20504;-63
2021/09/03 13:56:51;;;;;;;;;;;;;;;;;;5033847;28;20002;-63
2021/09/03 13:59:18;;;;;;;;;;;;;;;;;;5033365;28;20001;-63
2021/09/03 14:01:45;;;;;;;;;;;;;;;;;;5032910;28;20523;-63
2021/09/03 14:04:12;;;;;;;;;;;;;;;;;;5034189;28;20008;-62
2021/09/03 14:06:39;;;;;;;;;;;;;;;;;;5032745;28;20002;-63
2021/09/03 14:09:06;;;;;;;;;;;;;;;;;;5033110;28;20461;-62
2021/09/03 14:11:33;;;;;;;;;;;;;;;;;;5032998;28;20018;-63
2021/09/03 14:14:00;;;;;;;;;;;;;;;;;;5032730;28;20488;-62
2021/09/03 14:16:27;;;;;;;;;;;;;;;;;;5033103;28;20025;-63
2021/09/03 14:18:54;;;;;;;;;;;;;;;;;;5033215;28;20001;-62
2021/09/03 14:21:21;;;;;;;;;;;;;;;;;;5032378;28;20024;-62
2021/09/03 14:23:48;;;;;;;;;;;;;;;;;;5033063;28;20002;-63
2021/09/03 14:26:15;;;;;;;;;;;;;;;;;;5032967;28;20006;-63
2021/09/03 14:28:42;;;;;;;;;;;;;;;;;;5032514;28;20457;-63
2021/09/03 14:31:09;;;;;;;;;;;;;;;;;;5032692;28;20017;-62
2021/09/03 14:33:36;;;;;;;;;;;;;;;;;;5032368;28;20002;-63
2021/09/03 14:36:03;;;;;;;;;;;;;;;;;;5032876;28;20013;-63
2021/09/03 14:38:29;;;;;;;;;;;;;;;;;;5032592;28;20009;-62
2021/09/03 14:40:56;;;;;;;;;;;;;;;;;;5032664;28;20022;-63
2021/09/03 14:43:23;;;;;;;;;;;;;;;;;;5032778;28;20371;-63
2021/09/03 14:45:50;;;;;;;;;;;;;;;;;;5032997;28;20002;-63
2021/09/03 14:48:17;;;;;;;;;;;;;;;;;;5032157;28;20002;-62
2021/09/03 14:50:44;;;;;;;;;;;;;;;;;;5032459;28;20519;-62
2021/09/03 14:53:11;;;;;;;;;;;;;;;;;;5032630;28;20008;-62
2021/09/03 14:55:38;;;;;;;;;;;;;;;;;;5032216;28;20017;-62
2021/09/03 14:58:05;;;;;;;;;;;;;;;;;;5032321;28;20009;-63
2021/09/03 15:00:32;;;;;;;;;;;;;;;;;;5032142;28;20500;-62
2021/09/03 15:02:59;;;;;;;;;;;;;;;;;;5032347;28;20025;-62
2021/09/03 15:05:25;;;;;;;;;;;;;;;;;;5032468;28;20005;-62
2021/09/03 15:07:52;;;;;;;;;;;;;;;;;;5032260;28;20002;-62
2021/09/03 15:10:19;;;;;;;;;;;;;;;;;;5031994;28;20025;-62
2021/09/03 15:12:46;;;;;;;;;;;;;;;;;;5032063;28;20457;-62
2021/09/03 15:15:13;;;;;;;;;;;;;;;;;;5032291;28;20017;-61
2021/09/03 15:17:40;;;;;;;;;;;;;;;;;;5031926;28;20009;-62
2021/09/03 15:20:07;;;;;;;;;;;;;;;;;;5032467;28;20018;-62
2021/09/03 15:22:34;;;;;;;;;;;;;;;;;;5032182;28;20008;-62
2021/09/03 15:25:01;;;;;;;;;;;;;;;;;;5032166;28;20092;-62
2021/09/03 15:27:28;;;;;;;;;;;;;;;;;;5032427;28;20002;-62
2021/09/03 15:29:55;;;;;;;;;;;;;;;;;;5031921;28;20378;-62
2021/09/03 15:32:22;;;;;;;;;;;;;;;;;;5031652;28;20002;-61
2021/09/03 15:34:48;;;;;;;;;;;;;;;;;;5032283;28;20002;-62
2021/09/03 15:37:16;;;;;;;;;;;;;;;;;;5032387;28;20006;-63
2021/09/03 15:39:43;;;;;;;;;;;;;;;;;;5032055;28;20012;-62
2021/09/03 15:42:10;;;;;;;;;;;;;;;;;;5031722;28;20008;-61
2021/09/03 15:44:37;;;;;;;;;;;;;;;;;;5032287;28;20002;-62
2021/09/03 15:47:04;;;;;;;;;;;;;;;;;;5035729;28;20468;-62
2021/09/03 15:49:31;;;;;;;;;;;;;;;;;;5035880;28;20001;-62
2021/09/03 15:51:58;;;;;;;;;;;;;;;;;;5035289;28;20449;-62
2021/09/03 15:54:25;;;;;;;;;;;;;;;;;;5035913;28;20009;-62
2021/09/03 15:56:52;;;;;;;;;;;;;;;;;;5035429;28;20018;-62
2021/09/03 15:59:19;;;;;;;;;;;;;;;;;;5035451;28;20006;-62
2021/09/03 16:01:46;;;;;;;;;;;;;;;;;;5035258;28;20018;-62
2021/09/03 16:04:13;;;;;;;;;;;;;;;;;;5035909;28;20013;-62
2021/09/03 16:06:40;;;;;;;;;;;;;;;;;;5035255;28;20001;-63
2021/09/03 16:09:07;;;;;;;;;;;;;;;;;;5035278;28;20002;-63
2021/09/03 16:11:34;;;;;;;;;;;;;;;;;;5035192;28;20018;-62
2021/09/03 16:14:01;;;;;;;;;;;;;;;;;;5035892;28;20005;-62
2021/09/03 16:16:30;;;;;;;;;;;;;;;;;;5035428;28;20021;-62
2021/09/03 16:18:56;;;;;;;;;;;;;;;;;;5035591;28;20010;-61
2021/09/03 16:21:23;;;;;;;;;;;;;;;;;;5034875;28;20374;-62
2021/09/03 16:23:50;;;;;;;;;;;;;;;;;;5035098;28;20237;-62
2021/09/03 16:26:17;;;;;;;;;;;;;;;;;;5035303;28;20002;-62
2021/09/03 16:28:44;;;;;;;;;;;;;;;;;;5034806;28;20369;-62
2021/09/03 16:31:11;;;;;;;;;;;;;;;;;;5034791;28;20018;-62
2021/09/03 16:33:38;;;;;;;;;;;;;;;;;;5035153;28;20002;-62
2021/09/03 16:36:05;;;;;;;;;;;;;;;;;;5034984;28;20014;-61
2021/09/03 16:38:32;;;;;;;;;;;;;;;;;;5034373;28;20006;-63
2021/09/03 16:40:59;;;;;;;;;;;;;;;;;;5034399;28;20022;-62
2021/09/03 16:43:26;;;;;;;;;;;;;;;;;;5035038;28;20009;-62